createdAt,value
2018-12-25T00:00:14.403Z,30.23
2018-12-25T00:01:37.042Z,13.80
2018-12-25T00:26:21.451Z,38.77
2018-12-25T00:31:53.718Z,15.40
2018-12-25T00:35:05.158Z,9.90
2018-12-25T00:44:53.454Z,8.00
2018-12-25T00:54:47.217Z,16.43
2018-12-25T00:57:49.876Z,8.80
2018-12-25T01:00:48.510Z,8.67
2018-12-25T01:04:00.142Z,9.70
2018-12-25T01:07:26.873Z,8.80
2018-12-25T01:20:11.427Z,13.00
2018-12-25T01:23:26.192Z,8.33
2018-12-25T01:33:06.333Z,8.17
2018-12-25T01:37:58.950Z,7.53
2018-12-25T01:42:30.767Z,7.60
2018-12-25T01:49:21.414Z,7.70
2018-12-25T01:51:29.414Z,8.70
2018-12-25T01:54:00.456Z,8.13
2018-12-25T01:56:31.400Z,9.70
2018-12-25T01:59:02.451Z,8.70
2018-12-25T02:01:33.319Z,8.53
2018-12-25T02:04:04.293Z,9.33
2018-12-25T02:06:35.259Z,10.37
2018-12-25T02:09:06.985Z,8.43
2018-12-25T02:11:37.958Z,8.50
2018-12-25T02:14:09.010Z,9.40
2018-12-25T02:16:39.905Z,8.30
2018-12-25T02:19:10.780Z,7.73
2018-12-25T02:21:41.807Z,8.33
2018-12-25T02:24:12.793Z,8.50
2018-12-25T02:26:43.686Z,7.87
2018-12-25T02:29:14.631Z,9.07
2018-12-25T02:31:45.617Z,10.17
2018-12-25T02:34:16.710Z,9.93
2018-12-25T02:36:47.657Z,8.57
2018-12-25T02:39:18.698Z,9.57
2018-12-25T02:41:49.663Z,10.03
2018-12-25T02:44:20.595Z,9.87
2018-12-25T02:46:51.606Z,8.00
2018-12-25T02:49:22.485Z,8.20
2018-12-25T02:51:53.453Z,8.03
2018-12-25T02:54:26.646Z,7.80
2018-12-25T02:56:57.071Z,7.80
2018-12-25T02:59:28.106Z,7.40
2018-12-25T03:01:59.028Z,7.67
2018-12-25T03:04:29.994Z,7.63
2018-12-25T03:07:00.964Z,8.33
2018-12-25T03:09:31.906Z,7.40
2018-12-25T03:12:02.811Z,7.27
2018-12-25T03:14:33.800Z,7.57
2018-12-25T03:17:04.947Z,7.67
2018-12-25T03:19:35.820Z,7.00
2018-12-25T03:22:06.807Z,8.57
2018-12-25T03:24:37.690Z,7.23
2018-12-25T03:27:08.645Z,7.63
2018-12-25T03:29:39.579Z,8.70
2018-12-25T03:32:10.470Z,9.80
2018-12-25T03:34:41.413Z,7.63
2018-12-25T03:37:12.372Z,7.67
2018-12-25T03:39:43.392Z,9.10
2018-12-25T03:42:15.357Z,8.10
2018-12-25T03:44:46.276Z,9.53
2018-12-25T03:47:17.250Z,9.10
2018-12-25T03:49:48.097Z,10.03
2018-12-25T03:52:19.087Z,8.90
2018-12-25T03:54:49.990Z,8.07
2018-12-25T03:57:20.974Z,8.13
2018-12-25T03:59:51.950Z,8.07
2018-12-25T04:02:22.787Z,6.93
2018-12-25T04:04:53.627Z,7.90
2018-12-25T04:07:24.675Z,7.37
2018-12-25T04:09:55.609Z,7.87
2018-12-25T04:12:26.574Z,9.03
2018-12-25T04:14:57.443Z,7.13
2018-12-25T04:17:28.475Z,7.10
2018-12-25T04:19:59.320Z,8.33
2018-12-25T04:22:30.235Z,8.27
2018-12-25T04:25:01.111Z,7.53
2018-12-25T04:27:32.083Z,8.23
2018-12-25T04:30:03.021Z,8.43
2018-12-25T04:32:33.962Z,7.57
2018-12-25T04:35:04.899Z,8.00
2018-12-25T04:37:35.856Z,9.40
2018-12-25T04:40:07.377Z,7.80
2018-12-25T04:42:38.416Z,6.80
2018-12-25T04:45:09.319Z,8.23
2018-12-25T04:47:40.373Z,8.13
2018-12-25T04:50:11.323Z,7.80
2018-12-25T04:52:42.236Z,8.67
2018-12-25T04:55:13.174Z,7.97
2018-12-25T04:57:44.194Z,9.00
2018-12-25T05:00:15.207Z,7.40
2018-12-25T05:02:46.190Z,7.90
2018-12-25T05:05:17.458Z,8.47
2018-12-25T05:07:48.421Z,6.87
2018-12-25T05:10:19.444Z,8.40
2018-12-25T05:12:50.355Z,9.83
2018-12-25T05:15:21.288Z,9.67
2018-12-25T05:17:52.256Z,7.90
2018-12-25T05:20:23.198Z,7.07
2018-12-25T05:22:54.110Z,7.73
2018-12-25T05:25:25.027Z,7.20
2018-12-25T05:27:55.945Z,7.50
2018-12-25T05:30:26.930Z,9.70
2018-12-25T05:32:57.970Z,7.70
2018-12-25T05:35:29.019Z,7.27
2018-12-25T05:38:00.050Z,7.20
2018-12-25T05:40:30.944Z,7.23
2018-12-25T05:43:02.030Z,8.20
2018-12-25T05:45:33.037Z,9.00
2018-12-25T05:48:04.050Z,9.17
2018-12-25T05:50:35.182Z,7.60
2018-12-25T05:53:06.113Z,7.87
2018-12-25T05:55:37.084Z,8.27
2018-12-25T05:58:08.074Z,7.57
2018-12-25T06:00:39.039Z,8.33
2018-12-25T06:03:09.902Z,8.70
2018-12-25T06:05:40.896Z,6.67
2018-12-25T06:08:11.848Z,5.83
2018-12-25T06:10:42.726Z,6.50
2018-12-25T06:13:13.759Z,5.97
2018-12-25T06:15:44.773Z,7.07
2018-12-25T06:18:15.734Z,6.27
2018-12-25T06:20:54.949Z,6.47
2018-12-25T06:23:19.488Z,6.37
2018-12-25T06:25:50.393Z,6.47
2018-12-25T06:28:21.523Z,5.10
2018-12-25T06:30:52.479Z,7.10
2018-12-25T06:33:23.494Z,4.93
2018-12-25T06:35:54.435Z,5.67
2018-12-25T06:38:25.329Z,5.73
2018-12-25T06:40:56.244Z,5.03
2018-12-25T06:43:31.137Z,6.53
2018-12-25T06:46:07.350Z,5.30
2018-12-25T06:48:45.649Z,6.17
2018-12-25T06:51:22.371Z,6.70
2018-12-25T06:53:57.426Z,5.40
2018-12-25T06:56:31.578Z,6.57
2018-12-25T06:59:05.664Z,5.57
2018-12-25T07:01:41.594Z,4.73
2018-12-25T07:04:16.545Z,5.47
2018-12-25T07:06:54.844Z,5.17
2018-12-25T07:09:48.965Z,5.97
2018-12-25T07:12:25.772Z,6.17
2018-12-25T07:14:58.745Z,5.07
2018-12-25T07:17:37.516Z,6.50
2018-12-25T07:20:15.003Z,5.57
2018-12-25T07:22:45.896Z,5.07
2018-12-25T07:25:16.838Z,4.93
2018-12-25T07:27:47.784Z,5.93
2018-12-25T07:30:22.604Z,6.50
2018-12-25T07:32:59.274Z,6.00
2018-12-25T07:35:34.417Z,4.83
2018-12-25T07:38:16.174Z,5.90
2018-12-25T07:40:54.784Z,5.67
2018-12-25T07:43:31.522Z,5.27
2018-12-25T07:46:09.251Z,7.30
2018-12-25T07:48:45.647Z,4.13
2018-12-25T07:51:20.887Z,6.67
2018-12-25T07:53:57.099Z,4.47
2018-12-25T07:56:35.348Z,4.30
2018-12-25T07:59:13.411Z,4.93
2018-12-25T08:01:51.444Z,4.47
2018-12-25T08:04:33.163Z,4.97
2018-12-25T08:07:10.858Z,6.53
2018-12-25T08:09:48.445Z,5.17
2018-12-25T08:12:24.128Z,6.80
2018-12-25T08:14:57.982Z,6.23
2018-12-25T08:17:29.025Z,4.60
2018-12-25T08:19:59.882Z,4.03
2018-12-25T08:22:30.847Z,5.37
2018-12-25T08:25:01.814Z,4.80
2018-12-25T08:27:33.463Z,5.23
2018-12-25T08:30:05.573Z,5.10
2018-12-25T08:32:36.917Z,4.20
2018-12-25T08:35:08.471Z,4.60
2018-12-25T08:37:40.654Z,5.13
2018-12-25T08:40:17.891Z,4.40
2018-12-25T08:42:56.230Z,4.20
2018-12-25T08:45:27.654Z,6.53
2018-12-25T08:47:58.623Z,4.40
2018-12-25T08:50:29.556Z,4.57
2018-12-25T08:53:01.091Z,5.07
2018-12-25T08:55:32.666Z,5.43
2018-12-25T08:58:04.657Z,5.90
2018-12-25T09:00:36.025Z,4.43
2018-12-25T09:03:07.523Z,5.73
2018-12-25T09:05:39.474Z,4.67
2018-12-25T09:08:10.504Z,3.60
2018-12-25T09:10:42.397Z,3.60
2018-12-25T09:13:14.286Z,4.73
2018-12-25T09:15:45.836Z,6.77
2018-12-25T09:18:16.797Z,3.90
2018-12-25T09:20:47.684Z,3.83
2018-12-25T09:23:18.633Z,4.17
2018-12-25T09:25:50.565Z,3.23
2018-12-25T09:28:22.116Z,3.80
2018-12-25T09:30:53.621Z,3.90
2018-12-25T09:33:24.821Z,9.13
2018-12-25T09:35:58.146Z,4.10
2018-12-25T09:38:32.721Z,4.73
2018-12-25T09:41:25.180Z,3.80
2018-12-25T09:44:16.483Z,3.90
2018-12-25T09:49:56.279Z,4.40
2018-12-25T09:52:33.074Z,4.50
2018-12-25T09:55:09.734Z,5.00
2018-12-25T09:57:47.711Z,3.83
2018-12-25T10:00:26.248Z,5.00
2018-12-25T10:03:01.369Z,3.47
2018-12-25T10:05:38.066Z,3.93
2018-12-25T10:08:14.233Z,4.30
2018-12-25T10:10:46.878Z,4.50
2018-12-25T10:13:20.591Z,5.33
2018-12-25T10:15:54.325Z,4.53
2018-12-25T10:18:29.528Z,3.97
2018-12-25T10:21:00.471Z,3.97
2018-12-25T10:23:32.547Z,4.97
2018-12-25T10:26:05.411Z,4.07
2018-12-25T10:28:37.438Z,4.43
2018-12-25T10:31:08.996Z,5.63
2018-12-25T10:33:40.444Z,3.20
2018-12-25T10:36:11.791Z,4.57
2018-12-25T10:38:43.624Z,5.70
2018-12-25T10:41:14.672Z,4.90
2018-12-25T10:43:45.947Z,5.13
2018-12-25T10:46:16.835Z,3.97
2018-12-25T10:48:47.909Z,7.50
2018-12-25T10:51:18.845Z,5.43
2018-12-25T10:53:49.709Z,5.23
2018-12-25T10:56:21.604Z,5.83
2018-12-25T10:58:53.245Z,4.27
2018-12-25T11:01:24.260Z,7.43
2018-12-25T11:04:00.063Z,7.63
2018-12-25T11:06:37.228Z,5.50
2018-12-25T11:09:11.471Z,5.27
2018-12-25T11:11:45.085Z,16.07
2018-12-25T11:14:16.458Z,3.50
2018-12-25T11:20:44.558Z,5.70
2018-12-25T11:23:16.927Z,12.07
2018-12-25T11:25:48.907Z,26.47
2018-12-25T11:28:21.143Z,8.93
2018-12-25T11:30:52.003Z,2.93
2018-12-25T11:33:22.905Z,3.83
2018-12-25T11:35:54.048Z,2.90
2018-12-25T11:38:25.361Z,5.50
2018-12-25T11:41:04.983Z,3.53
2018-12-25T11:43:35.919Z,2.63
2018-12-25T11:46:06.940Z,6.33
2018-12-25T11:48:38.572Z,4.57
2018-12-25T11:51:09.743Z,4.23
2018-12-25T11:53:40.883Z,5.00
2018-12-25T11:56:12.252Z,4.03
2018-12-25T11:58:48.356Z,4.20
2018-12-25T12:01:19.624Z,5.17
2018-12-25T12:03:51.011Z,4.40
2018-12-25T12:06:22.558Z,4.63
2018-12-25T12:08:54.240Z,3.93
2018-12-25T12:11:25.322Z,3.67
2018-12-25T12:13:56.736Z,7.80
2018-12-25T12:16:36.427Z,4.60
2018-12-25T12:19:07.817Z,4.33
2018-12-25T12:21:39.939Z,3.37
2018-12-25T12:24:12.011Z,3.23
2018-12-25T12:26:43.019Z,3.80
2018-12-25T12:29:14.209Z,4.10
2018-12-25T12:31:45.637Z,3.83
2018-12-25T12:34:18.554Z,3.80
2018-12-25T12:36:52.059Z,4.80
2018-12-25T12:39:23.553Z,3.13
2018-12-25T12:41:56.236Z,3.30
2018-12-25T12:44:27.895Z,7.03
2018-12-25T12:46:59.457Z,4.10
2018-12-25T12:49:31.551Z,3.20
2018-12-25T12:52:03.129Z,4.73
2018-12-25T12:54:34.832Z,3.97
2018-12-25T12:57:07.088Z,3.87
2018-12-25T12:59:38.205Z,3.70
2018-12-25T13:02:09.267Z,3.73
2018-12-25T13:04:40.361Z,4.97
2018-12-25T13:07:11.760Z,4.17
2018-12-25T13:09:43.152Z,4.33
2018-12-25T13:12:14.027Z,5.40
2018-12-25T13:14:44.892Z,4.27
2018-12-25T13:17:16.388Z,4.50
2018-12-25T13:19:48.719Z,4.03
2018-12-25T13:22:20.107Z,3.40
2018-12-25T13:24:51.297Z,4.00
2018-12-25T13:27:22.633Z,5.37
2018-12-25T13:29:54.003Z,3.77
2018-12-25T13:32:25.266Z,3.20
2018-12-25T13:34:57.659Z,3.60
2018-12-25T13:37:28.814Z,3.80
2018-12-25T13:39:59.984Z,4.50
2018-12-25T13:42:31.607Z,4.57
2018-12-25T13:45:02.949Z,4.33
2018-12-25T13:47:34.046Z,6.47
2018-12-25T13:50:07.993Z,5.90
2018-12-25T13:52:39.371Z,4.17
2018-12-25T13:55:10.789Z,4.63
2018-12-25T13:57:44.317Z,6.83
2018-12-25T14:00:16.326Z,4.43
2018-12-25T14:02:47.959Z,4.80
2018-12-25T14:05:19.011Z,4.97
2018-12-25T14:07:51.175Z,5.47
2018-12-25T14:10:22.873Z,4.20
2018-12-25T14:12:54.113Z,4.27
2018-12-25T14:15:25.579Z,5.33
2018-12-25T14:17:56.930Z,5.13
2018-12-25T14:20:28.459Z,4.10
2018-12-25T14:22:59.917Z,4.50
2018-12-25T14:25:31.265Z,4.50
2018-12-25T14:28:02.743Z,5.17
2018-12-25T14:30:34.421Z,7.57
2018-12-25T14:33:05.692Z,4.93
2018-12-25T14:35:37.163Z,4.93
2018-12-25T14:38:08.927Z,5.10
2018-12-25T14:40:40.680Z,4.93
2018-12-25T14:43:12.523Z,5.20
2018-12-25T14:45:44.285Z,5.40
2018-12-25T14:48:15.505Z,4.97
2018-12-25T14:50:47.826Z,6.07
2018-12-25T14:53:28.700Z,6.27
2018-12-25T14:56:00.263Z,8.87
2018-12-25T14:58:32.724Z,5.43
2018-12-25T15:01:04.400Z,6.57
2018-12-25T15:03:35.512Z,5.60
2018-12-25T15:06:06.663Z,5.87
2018-12-25T15:08:38.062Z,6.60
2018-12-25T15:11:09.655Z,5.67
2018-12-25T15:13:40.590Z,6.40
2018-12-25T15:16:12.267Z,6.07
2018-12-25T15:18:43.992Z,5.03
2018-12-25T15:21:15.219Z,6.40
2018-12-25T15:23:53.016Z,6.53
2018-12-25T15:26:24.567Z,7.57
2018-12-25T15:28:55.925Z,5.63
2018-12-25T15:31:27.420Z,5.70
2018-12-25T15:33:59.009Z,5.87
2018-12-25T15:36:30.513Z,8.77
2018-12-25T15:39:02.907Z,7.37
2018-12-25T15:41:34.198Z,7.50
2018-12-25T15:44:05.143Z,6.83
2018-12-25T15:46:36.537Z,7.33
2018-12-25T15:49:07.502Z,5.60
2018-12-25T15:54:13.502Z,6.67
2018-12-25T15:56:44.620Z,6.73
2018-12-25T15:59:15.564Z,6.80
2018-12-25T16:01:46.476Z,5.77
2018-12-25T16:04:17.666Z,7.77
2018-12-25T16:06:48.600Z,5.67
2018-12-25T16:09:19.557Z,5.90
2018-12-25T16:11:50.486Z,7.23
2018-12-25T16:14:22.245Z,6.33
2018-12-25T16:16:53.308Z,6.77
2018-12-25T16:19:24.568Z,6.90
2018-12-25T16:21:55.543Z,8.60
2018-12-25T16:24:27.548Z,7.77
2018-12-25T16:26:58.860Z,6.13
2018-12-25T16:29:29.870Z,6.60
2018-12-25T16:32:00.777Z,6.27
2018-12-25T16:34:31.880Z,7.90
2018-12-25T16:37:02.760Z,8.43
2018-12-25T16:39:33.987Z,6.53
2018-12-25T16:42:05.096Z,6.37
2018-12-25T16:44:37.996Z,6.77
2018-12-25T16:47:09.067Z,7.37
2018-12-25T16:49:40.129Z,5.93
2018-12-25T16:52:11.153Z,6.13
2018-12-25T16:54:42.461Z,8.43
2018-12-25T16:57:13.377Z,6.73
2018-12-25T16:59:44.275Z,6.47
2018-12-25T17:02:15.365Z,6.43
2018-12-25T17:04:46.237Z,5.70
2018-12-25T17:07:17.138Z,5.60
2018-12-25T17:09:48.058Z,5.63
2018-12-25T17:12:19.094Z,5.50
2018-12-25T17:14:50.038Z,5.83
2018-12-25T17:17:20.970Z,5.47
2018-12-25T17:19:52.494Z,5.47
2018-12-25T17:22:23.603Z,6.43
2018-12-25T17:24:54.754Z,6.77
2018-12-25T17:27:25.668Z,5.70
2018-12-25T17:29:56.654Z,6.17
2018-12-25T17:32:27.664Z,6.30
2018-12-25T17:34:58.647Z,7.00
2018-12-25T17:37:29.624Z,6.17
2018-12-25T17:40:00.681Z,7.20
2018-12-25T17:42:31.950Z,7.50
2018-12-25T17:45:02.913Z,6.70
2018-12-25T17:47:33.860Z,6.70
2018-12-25T17:50:05.801Z,7.03
2018-12-25T17:52:36.740Z,6.90
2018-12-25T17:55:07.857Z,7.23
2018-12-25T17:57:39.130Z,6.77
2018-12-25T18:00:10.265Z,6.33
2018-12-25T18:02:41.337Z,6.87
2018-12-25T18:05:12.303Z,6.43
2018-12-25T18:07:43.305Z,6.20
2018-12-25T18:10:14.246Z,7.23
2018-12-25T18:12:45.237Z,7.87
2018-12-25T18:15:16.305Z,6.83
2018-12-25T18:17:47.354Z,8.67
2018-12-25T18:20:18.281Z,9.83
2018-12-25T18:22:49.191Z,7.03
2018-12-25T18:25:20.164Z,6.40
2018-12-25T18:27:51.267Z,6.63
2018-12-25T18:30:22.176Z,6.70
2018-12-25T18:32:53.241Z,7.10
2018-12-25T18:35:24.203Z,7.17
2018-12-25T18:37:55.164Z,7.30
2018-12-25T18:40:27.925Z,7.83
2018-12-25T18:42:58.816Z,7.20
2018-12-25T18:45:29.786Z,7.43
2018-12-25T18:48:00.827Z,7.13
2018-12-25T18:50:36.397Z,8.43
2018-12-25T18:53:09.369Z,7.63
2018-12-25T18:55:40.440Z,7.73
2018-12-25T18:58:11.634Z,7.73
2018-12-25T19:00:42.608Z,7.47
2018-12-25T19:03:13.827Z,8.33
2018-12-25T19:05:45.938Z,7.30
2018-12-25T19:08:16.839Z,8.17
2018-12-25T19:10:48.196Z,10.07
2018-12-25T19:13:19.202Z,8.23
2018-12-25T19:15:54.369Z,8.07
2018-12-25T19:18:25.336Z,8.60
2018-12-25T19:20:56.746Z,8.00
2018-12-25T19:23:29.342Z,8.40
2018-12-25T19:26:01.771Z,9.20
2018-12-25T19:28:32.808Z,8.83
2018-12-25T19:31:03.930Z,10.93
2018-12-25T19:33:35.014Z,8.53
2018-12-25T19:36:05.995Z,8.73
2018-12-25T19:38:36.988Z,9.07
2018-12-25T19:41:07.935Z,9.20
2018-12-25T19:43:39.070Z,8.33
2018-12-25T19:46:10.107Z,8.30
2018-12-25T19:48:41.463Z,8.60
2018-12-25T19:52:11.947Z,9.27
2018-12-25T19:54:48.011Z,9.33
2018-12-25T19:57:19.119Z,8.77
2018-12-25T19:59:50.190Z,8.93
2018-12-25T20:02:21.097Z,11.53
2018-12-25T20:04:57.638Z,9.33
2018-12-25T20:07:53.020Z,8.57
2018-12-25T20:10:50.459Z,9.10
2018-12-25T20:13:26.986Z,9.63
2018-12-25T20:16:16.025Z,8.90
2018-12-25T20:18:50.246Z,8.87
2018-12-25T20:21:59.530Z,10.40
2018-12-25T20:24:52.777Z,10.03
2018-12-25T20:27:42.730Z,8.80
2018-12-25T20:30:39.201Z,11.60
2018-12-25T20:33:28.260Z,10.07
2018-12-25T20:36:08.118Z,8.93
2018-12-25T20:39:09.257Z,9.70
2018-12-25T20:41:46.188Z,9.93
2018-12-25T20:44:49.305Z,10.10
2018-12-25T20:47:42.340Z,9.63
2018-12-25T20:50:19.369Z,10.27
2018-12-25T20:53:16.118Z,10.83
2018-12-25T20:55:52.770Z,8.90
2018-12-25T20:58:46.193Z,11.23
2018-12-25T21:01:25.987Z,10.17
2018-12-25T21:04:02.825Z,9.17
2018-12-25T21:07:10.048Z,9.47
2018-12-25T21:09:46.605Z,9.93
2018-12-25T21:12:32.499Z,9.57
2018-12-25T21:15:31.422Z,9.70
2018-12-25T21:18:25.320Z,12.83
2018-12-25T21:21:02.411Z,10.13
2018-12-25T21:24:10.047Z,9.13
2018-12-25T21:27:17.363Z,9.70
2018-12-25T21:29:48.526Z,9.00
2018-12-25T21:32:19.633Z,11.37
2018-12-25T21:34:51.109Z,11.23
2018-12-25T21:37:22.567Z,8.80
2018-12-25T21:39:53.681Z,10.70
2018-12-25T21:42:25.781Z,9.90
2018-12-25T21:44:57.478Z,9.37
2018-12-25T21:47:29.003Z,9.53
2018-12-25T21:50:00.483Z,9.27
2018-12-25T21:52:31.487Z,9.53
2018-12-25T21:55:19.092Z,9.80
2018-12-25T21:57:50.862Z,10.03
2018-12-25T22:00:21.982Z,9.00
2018-12-25T22:02:53.285Z,9.50
2018-12-25T22:05:25.064Z,10.23
2018-12-25T22:07:56.001Z,11.27
2018-12-25T22:10:26.936Z,9.17
2018-12-25T22:12:57.818Z,10.60
2018-12-25T22:15:28.843Z,9.60
2018-12-25T22:18:00.567Z,10.77
2018-12-25T22:20:31.502Z,11.30
2018-12-25T22:23:02.524Z,9.30
2018-12-25T22:25:33.650Z,10.00
2018-12-25T22:28:04.579Z,10.80
2018-12-25T22:30:35.539Z,9.63
2018-12-25T22:33:06.559Z,9.37
2018-12-25T22:35:37.665Z,11.13
2018-12-25T22:38:08.554Z,13.57
2018-12-25T22:40:39.608Z,11.13
2018-12-25T22:43:10.639Z,10.73
2018-12-25T22:45:41.702Z,11.17
2018-12-25T22:48:12.657Z,9.90
2018-12-25T22:50:43.624Z,10.33
2018-12-25T22:53:14.652Z,9.40
2018-12-25T22:55:45.532Z,10.50
2018-12-25T22:58:16.495Z,9.63
2018-12-25T23:00:49.292Z,10.37
2018-12-25T23:03:20.353Z,10.10
2018-12-25T23:05:51.478Z,10.60
2018-12-25T23:08:22.479Z,11.57
2018-12-25T23:10:53.512Z,12.77
2018-12-25T23:13:24.595Z,15.17
2018-12-25T23:15:55.604Z,10.07
2018-12-25T23:18:26.629Z,10.60
2018-12-25T23:20:57.471Z,10.60
2018-12-25T23:23:28.439Z,11.00
2018-12-25T23:25:59.327Z,11.30
2018-12-25T23:28:30.239Z,10.20
2018-12-25T23:31:01.139Z,9.90
2018-12-25T23:33:32.008Z,18.27
2018-12-25T23:36:03.007Z,11.47
2018-12-25T23:38:33.953Z,11.10
2018-12-25T23:41:04.909Z,12.27
2018-12-25T23:43:35.770Z,10.70
2018-12-25T23:46:06.800Z,11.33
2018-12-25T23:48:37.926Z,11.37
2018-12-25T23:51:08.852Z,11.50
2018-12-25T23:53:39.725Z,11.70
2018-12-25T23:56:10.744Z,10.43
2018-12-25T23:58:41.783Z,12.27
